sensor_id;sensor_type;location;lat;lon;timestamp;pressure;altitude;pressure_sealevel;temperature;humidity
14343;BME280;7255;53.596;9.960;2023-05-25T00:01:55;102197.53;;;10.38;nan
14343;BME280;7255;53.596;9.960;2023-05-25T00:04:23;102203.72;;;10.38;nan
14343;BME280;7255;53.596;9.960;2023-05-25T00:06:51;102211.53;;;10.33;nan
14343;BME280;7255;53.596;9.960;2023-05-25T00:09:17;102205.09;;;10.19;nan
14343;BME280;7255;53.596;9.960;2023-05-25T00:11:43;102203.94;;;10.22;nan
14343;BME280;7255;53.596;9.960;2023-05-25T00:14:10;102207.62;;;10.21;nan
14343;BME280;7255;53.596;9.960;2023-05-25T00:16:37;102207.62;;;10.21;nan
14343;BME280;7255;53.596;9.960;2023-05-25T00:19:04;102214.94;;;10.12;nan
14343;BME280;7255;53.596;9.960;2023-05-25T00:21:31;102206.50;;;10.00;nan
14343;BME280;7255;53.596;9.960;2023-05-25T00:24:02;102214.00;;;10.05;nan
14343;BME280;7255;53.596;9.960;2023-05-25T00:26:28;102202.31;;;9.98;nan
14343;BME280;7255;53.596;9.960;2023-05-25T00:28:55;102207.81;;;10.05;nan
14343;BME280;7255;53.596;9.960;2023-05-25T00:31:21;102200.03;;;10.10;nan
14343;BME280;7255;53.596;9.960;2023-05-25T00:33:49;102204.94;;;10.06;nan
14343;BME280;7255;53.596;9.960;2023-05-25T00:36:15;102204.13;;;10.06;nan
14343;BME280;7255;53.596;9.960;2023-05-25T00:38:41;102198.28;;;10.02;nan
14343;BME280;7255;53.596;9.960;2023-05-25T00:41:07;102201.88;;;9.94;nan
14343;BME280;7255;53.596;9.960;2023-05-25T00:43:34;102203.53;;;9.95;nan
14343;BME280;7255;53.596;9.960;2023-05-25T00:46:01;102204.84;;;9.99;nan
14343;BME280;7255;53.596;9.960;2023-05-25T00:48:27;102210.19;;;9.99;nan
14343;BME280;7255;53.596;9.960;2023-05-25T00:50:59;102208.56;;;9.98;nan
14343;BME280;7255;53.596;9.960;2023-05-25T00:53:25;102206.87;;;9.97;nan
14343;BME280;7255;53.596;9.960;2023-05-25T00:56:01;102203.44;;;9.89;nan
14343;BME280;7255;53.596;9.960;2023-05-25T00:58:32;102191.50;;;9.91;nan
14343;BME280;7255;53.596;9.960;2023-05-25T01:01:00;102198.53;;;9.92;nan
14343;BME280;7255;53.596;9.960;2023-05-25T01:03:33;102206.28;;;9.87;nan
14343;BME280;7255;53.596;9.960;2023-05-25T01:06:06;102200.56;;;9.90;nan
14343;BME280;7255;53.596;9.960;2023-05-25T01:08:34;102200.94;;;9.87;nan
14343;BME280;7255;53.596;9.960;2023-05-25T01:11:02;102205.41;;;9.80;nan
14343;BME280;7255;53.596;9.960;2023-05-25T01:13:28;102207.31;;;9.71;nan
14343;BME280;7255;53.596;9.960;2023-05-25T01:16:01;102205.75;;;9.77;nan
14343;BME280;7255;53.596;9.960;2023-05-25T01:18:28;102204.47;;;9.73;nan
14343;BME280;7255;53.596;9.960;2023-05-25T01:20:58;102207.69;;;9.68;nan
14343;BME280;7255;53.596;9.960;2023-05-25T01:23:39;102212.22;;;9.68;nan
14343;BME280;7255;53.596;9.960;2023-05-25T01:26:09;102206.66;;;9.54;nan
14343;BME280;7255;53.596;9.960;2023-05-25T01:28:40;102213.78;;;9.62;nan
14343;BME280;7255;53.596;9.960;2023-05-25T01:31:08;102213.41;;;9.65;nan
14343;BME280;7255;53.596;9.960;2023-05-25T01:33:34;102208.03;;;9.65;nan
14343;BME280;7255;53.596;9.960;2023-05-25T01:36:03;102216.63;;;9.60;nan
14343;BME280;7255;53.596;9.960;2023-05-25T01:38:29;102219.84;;;9.56;nan
14343;BME280;7255;53.596;9.960;2023-05-25T01:40:56;102215.34;;;9.56;nan
14343;BME280;7255;53.596;9.960;2023-05-25T01:43:22;102216.06;;;9.50;nan
14343;BME280;7255;53.596;9.960;2023-05-25T01:45:49;102214.50;;;9.56;nan
14343;BME280;7255;53.596;9.960;2023-05-25T01:48:23;102215.97;;;9.43;nan
14343;BME280;7255;53.596;9.960;2023-05-25T01:50:53;102218.91;;;9.49;nan
14343;BME280;7255;53.596;9.960;2023-05-25T01:53:28;102211.62;;;9.57;nan
14343;BME280;7255;53.596;9.960;2023-05-25T01:55:58;102208.28;;;9.55;nan
14343;BME280;7255;53.596;9.960;2023-05-25T01:58:26;102202.09;;;9.55;nan
14343;BME280;7255;53.596;9.960;2023-05-25T02:00:54;102218.22;;;9.55;nan
14343;BME280;7255;53.596;9.960;2023-05-25T02:03:21;102207.69;;;9.45;nan
14343;BME280;7255;53.596;9.960;2023-05-25T02:05:47;102211.06;;;9.47;nan
14343;BME280;7255;53.596;9.960;2023-05-25T02:08:14;102207.34;;;9.48;nan
14343;BME280;7255;53.596;9.960;2023-05-25T02:10:41;102204.38;;;9.43;nan
14343;BME280;7255;53.596;9.960;2023-05-25T02:13:08;102204.75;;;9.40;nan
14343;BME280;7255;53.596;9.960;2023-05-25T02:15:34;102203.19;;;9.46;nan
14343;BME280;7255;53.596;9.960;2023-05-25T02:18:00;102209.75;;;9.43;nan
14343;BME280;7255;53.596;9.960;2023-05-25T02:20:27;102204.28;;;9.36;nan
14343;BME280;7255;53.596;9.960;2023-05-25T02:22:53;102206.66;;;9.31;nan
14343;BME280;7255;53.596;9.960;2023-05-25T02:25:19;102211.19;;;9.31;nan
14343;BME280;7255;53.596;9.960;2023-05-25T02:27:47;102214.62;;;9.39;nan
14343;BME280;7255;53.596;9.960;2023-05-25T02:30:13;102215.50;;;9.40;nan
14343;BME280;7255;53.596;9.960;2023-05-25T02:32:40;102212.97;;;9.38;nan
14343;BME280;7255;53.596;9.960;2023-05-25T02:35:07;102213.22;;;9.29;nan
14343;BME280;7255;53.596;9.960;2023-05-25T02:37:33;102211.19;;;9.31;nan
14343;BME280;7255;53.596;9.960;2023-05-25T02:40:00;102224.53;;;9.39;nan
14343;BME280;7255;53.596;9.960;2023-05-25T02:42:26;102212.50;;;9.35;nan
14343;BME280;7255;53.596;9.960;2023-05-25T02:44:54;102207.97;;;9.35;nan
14343;BME280;7255;53.596;9.960;2023-05-25T02:47:21;102208.69;;;9.29;nan
14343;BME280;7255;53.596;9.960;2023-05-25T02:49:47;102219.91;;;9.33;nan
14343;BME280;7255;53.596;9.960;2023-05-25T02:52:13;102217.41;;;9.31;nan
14343;BME280;7255;53.596;9.960;2023-05-25T02:54:40;102221.47;;;9.27;nan
14343;BME280;7255;53.596;9.960;2023-05-25T02:57:06;102212.84;;;9.32;nan
14343;BME280;7255;53.596;9.960;2023-05-25T02:59:34;102222.28;;;9.28;nan
14343;BME280;7255;53.596;9.960;2023-05-25T03:02:02;102229.56;;;9.19;nan
14343;BME280;7255;53.596;9.960;2023-05-25T03:04:28;102224.44;;;9.09;nan
14343;BME280;7255;53.596;9.960;2023-05-25T03:06:58;102232.88;;;9.21;nan
14343;BME280;7255;53.596;9.960;2023-05-25T03:09:24;102238.16;;;9.14;nan
14343;BME280;7255;53.596;9.960;2023-05-25T03:11:51;102241.81;;;9.13;nan
14343;BME280;7255;53.596;9.960;2023-05-25T03:14:17;102244.09;;;9.24;nan
14343;BME280;7255;53.596;9.960;2023-05-25T03:16:43;102239.69;;;9.32;nan
14343;BME280;7255;53.596;9.960;2023-05-25T03:19:11;102250.78;;;9.29;nan
14343;BME280;7255;53.596;9.960;2023-05-25T03:21:37;102253.03;;;9.17;nan
14343;BME280;7255;53.596;9.960;2023-05-25T03:24:04;102262.22;;;9.22;nan
14343;BME280;7255;53.596;9.960;2023-05-25T03:26:31;102261.53;;;9.29;nan
14343;BME280;7255;53.596;9.960;2023-05-25T03:28:57;102259.09;;;9.34;nan
14343;BME280;7255;53.596;9.960;2023-05-25T03:31:24;102255.78;;;9.32;nan
14343;BME280;7255;53.596;9.960;2023-05-25T03:33:50;102256.03;;;9.22;nan
14343;BME280;7255;53.596;9.960;2023-05-25T03:36:18;102258.41;;;9.17;nan
14343;BME280;7255;53.596;9.960;2023-05-25T03:38:46;102266.63;;;9.15;nan
14343;BME280;7255;53.596;9.960;2023-05-25T03:41:12;102257.44;;;9.10;nan
14343;BME280;7255;53.596;9.960;2023-05-25T03:43:38;102263.41;;;9.20;nan
14343;BME280;7255;53.596;9.960;2023-05-25T03:46:05;102260.19;;;9.24;nan
14343;BME280;7255;53.596;9.960;2023-05-25T03:48:31;102263.16;;;9.30;nan
14343;BME280;7255;53.596;9.960;2023-05-25T03:50:58;102274.37;;;9.33;nan
14343;BME280;7255;53.596;9.960;2023-05-25T03:53:25;102272.81;;;9.39;nan
14343;BME280;7255;53.596;9.960;2023-05-25T03:55:52;102276.53;;;9.38;nan
14343;BME280;7255;53.596;9.960;2023-05-25T03:58:18;102282.13;;;9.51;nan
14343;BME280;7255;53.596;9.960;2023-05-25T04:00:44;102280.44;;;9.50;nan
14343;BME280;7255;53.596;9.960;2023-05-25T04:03:13;102279.16;;;9.46;nan
14343;BME280;7255;53.596;9.960;2023-05-25T04:05:39;102279.97;;;9.47;nan
14343;BME280;7255;53.596;9.960;2023-05-25T04:08:06;102292.97;;;9.58;nan
14343;BME280;7255;53.596;9.960;2023-05-25T04:10:34;102298.31;;;9.58;nan
14343;BME280;7255;53.596;9.960;2023-05-25T04:13:00;102307.75;;;9.77;nan
14343;BME280;7255;53.596;9.960;2023-05-25T04:15:26;102302.25;;;9.70;nan
14343;BME280;7255;53.596;9.960;2023-05-25T04:17:53;102306.06;;;9.76;nan
14343;BME280;7255;53.596;9.960;2023-05-25T04:20:20;102305.09;;;9.92;nan
14343;BME280;7255;53.596;9.960;2023-05-25T04:22:46;102300.69;;;9.99;nan
14343;BME280;7255;53.596;9.960;2023-05-25T04:25:14;102301.88;;;9.96;nan
14343;BME280;7255;53.596;9.960;2023-05-25T04:27:42;102300.78;;;10.06;nan
14343;BME280;7255;53.596;9.960;2023-05-25T04:30:11;102299.09;;;10.05;nan
14343;BME280;7255;53.596;9.960;2023-05-25T04:32:37;102295.50;;;10.12;nan
14343;BME280;7255;53.596;9.960;2023-05-25T04:35:04;102300.41;;;10.09;nan
14343;BME280;7255;53.596;9.960;2023-05-25T04:37:31;102309.69;;;10.21;nan
14343;BME280;7255;53.596;9.960;2023-05-25T04:39:57;102301.06;;;10.26;nan
14343;BME280;7255;53.596;9.960;2023-05-25T04:42:24;102313.03;;;10.23;nan
14343;BME280;7255;53.596;9.960;2023-05-25T04:44:52;102307.28;;;10.26;nan
14343;BME280;7255;53.596;9.960;2023-05-25T04:47:19;102312.53;;;10.43;nan
14343;BME280;7255;53.596;9.960;2023-05-25T04:49:46;102309.56;;;10.37;nan
14343;BME280;7255;53.596;9.960;2023-05-25T04:52:12;102317.09;;;10.19;nan
14343;BME280;7255;53.596;9.960;2023-05-25T04:54:38;102325.91;;;10.28;nan
14343;BME280;7255;53.596;9.960;2023-05-25T04:57:05;102322.88;;;10.46;nan
14343;BME280;7255;53.596;9.960;2023-05-25T04:59:32;102315.69;;;10.31;nan
14343;BME280;7255;53.596;9.960;2023-05-25T05:01:59;102315.69;;;10.31;nan
14343;BME280;7255;53.596;9.960;2023-05-25T05:04:26;102310.59;;;10.51;nan
14343;BME280;7255;53.596;9.960;2023-05-25T05:06:52;102319.94;;;10.70;nan
14343;BME280;7255;53.596;9.960;2023-05-25T05:09:18;102322.44;;;10.72;nan
14343;BME280;7255;53.596;9.960;2023-05-25T05:11:45;102325.84;;;10.81;nan
14343;BME280;7255;53.596;9.960;2023-05-25T05:14:11;102329.00;;;10.69;nan
14343;BME280;7255;53.596;9.960;2023-05-25T05:16:37;102320.47;;;10.81;nan
14343;BME280;7255;53.596;9.960;2023-05-25T05:19:05;102324.06;;;10.88;nan
14343;BME280;7255;53.596;9.960;2023-05-25T05:21:31;102320.91;;;10.84;nan
14343;BME280;7255;53.596;9.960;2023-05-25T05:23:57;102325.84;;;10.81;nan
14343;BME280;7255;53.596;9.960;2023-05-25T05:26:24;102327.72;;;10.65;nan
14343;BME280;7255;53.596;9.960;2023-05-25T05:28:51;102341.50;;;10.62;nan
14343;BME280;7255;53.596;9.960;2023-05-25T05:31:18;102349.13;;;10.58;nan
14343;BME280;7255;53.596;9.960;2023-05-25T05:33:44;102332.34;;;10.42;nan
14343;BME280;7255;53.596;9.960;2023-05-25T05:36:12;102325.78;;;10.44;nan
14343;BME280;7255;53.596;9.960;2023-05-25T05:38:38;102336.59;;;10.51;nan
14343;BME280;7255;53.596;9.960;2023-05-25T05:41:05;102337.53;;;10.58;nan
14343;BME280;7255;53.596;9.960;2023-05-25T05:43:37;102329.94;;;10.47;nan
14343;BME280;7255;53.596;9.960;2023-05-25T05:46:06;102335.31;;;10.76;nan
14343;BME280;7255;53.596;9.960;2023-05-25T05:48:32;102346.00;;;11.06;nan
14343;BME280;7255;53.596;9.960;2023-05-25T05:50:58;102346.41;;;11.03;nan
14343;BME280;7255;53.596;9.960;2023-05-25T05:53:26;102349.38;;;11.08;nan
14343;BME280;7255;53.596;9.960;2023-05-25T05:55:52;102355.72;;;11.22;nan
14343;BME280;7255;53.596;9.960;2023-05-25T05:58:23;102348.53;;;11.08;nan
14343;BME280;7255;53.596;9.960;2023-05-25T06:00:51;102359.28;;;11.08;nan
14343;BME280;7255;53.596;9.960;2023-05-25T06:03:17;102356.09;;;11.19;nan
14343;BME280;7255;53.596;9.960;2023-05-25T06:05:44;102355.03;;;11.35;nan
14343;BME280;7255;53.596;9.960;2023-05-25T06:08:10;102360.50;;;11.42;nan
14343;BME280;7255;53.596;9.960;2023-05-25T06:10:39;102356.31;;;11.39;nan
14343;BME280;7255;53.596;9.960;2023-05-25T06:13:06;102353.59;;;11.54;nan
14343;BME280;7255;53.596;9.960;2023-05-25T06:15:33;102359.56;;;11.71;nan
14343;BME280;7255;53.596;9.960;2023-05-25T06:18:00;102363.94;;;11.93;nan
14343;BME280;7255;53.596;9.960;2023-05-25T06:20:27;102363.94;;;11.93;nan
14343;BME280;7255;53.596;9.960;2023-05-25T06:22:54;102366.00;;;11.91;nan
14343;BME280;7255;53.596;9.960;2023-05-25T06:25:20;102368.16;;;12.03;nan
14343;BME280;7255;53.596;9.960;2023-05-25T06:27:47;102368.38;;;12.29;nan
14343;BME280;7255;53.596;9.960;2023-05-25T06:30:14;102373.06;;;12.49;nan
14343;BME280;7255;53.596;9.960;2023-05-25T06:32:41;102374.66;;;12.37;nan
14343;BME280;7255;53.596;9.960;2023-05-25T06:35:07;102375.44;;;12.30;nan
14343;BME280;7255;53.596;9.960;2023-05-25T06:37:36;102374.59;;;12.30;nan
14343;BME280;7255;53.596;9.960;2023-05-25T06:40:03;102372.00;;;12.15;nan
14343;BME280;7255;53.596;9.960;2023-05-25T06:42:29;102372.91;;;12.22;nan
14343;BME280;7255;53.596;9.960;2023-05-25T06:44:57;102381.59;;;12.24;nan
14343;BME280;7255;53.596;9.960;2023-05-25T06:47:23;102386.66;;;12.34;nan
14343;BME280;7255;53.596;9.960;2023-05-25T06:49:50;102382.19;;;12.48;nan
14343;BME280;7255;53.596;9.960;2023-05-25T06:52:16;102389.28;;;12.56;nan
14343;BME280;7255;53.596;9.960;2023-05-25T06:54:42;102388.78;;;12.39;nan
14343;BME280;7255;53.596;9.960;2023-05-25T06:57:09;102388.84;;;12.52;nan
14343;BME280;7255;53.596;9.960;2023-05-25T06:59:35;102396.13;;;12.86;nan
14343;BME280;7255;53.596;9.960;2023-05-25T07:02:03;102398.69;;;13.01;nan
14343;BME280;7255;53.596;9.960;2023-05-25T07:04:29;102390.84;;;13.13;nan
14343;BME280;7255;53.596;9.960;2023-05-25T07:06:57;102402.22;;;13.57;nan
14343;BME280;7255;53.596;9.960;2023-05-25T07:09:23;102398.97;;;13.75;nan
14343;BME280;7255;53.596;9.960;2023-05-25T07:11:49;102402.31;;;13.83;nan
14343;BME280;7255;53.596;9.960;2023-05-25T07:14:16;102410.59;;;13.75;nan
14343;BME280;7255;53.596;9.960;2023-05-25T07:16:42;102414.34;;;13.74;nan
14343;BME280;7255;53.596;9.960;2023-05-25T07:19:11;102403.09;;;13.71;nan
14343;BME280;7255;53.596;9.960;2023-05-25T07:21:37;102398.12;;;13.61;nan
14343;BME280;7255;53.596;9.960;2023-05-25T07:24:04;102403.91;;;13.58;nan
14343;BME280;7255;53.596;9.960;2023-05-25T07:26:30;102402.59;;;13.40;nan
14343;BME280;7255;53.596;9.960;2023-05-25T07:28:57;102396.37;;;13.40;nan
14343;BME280;7255;53.596;9.960;2023-05-25T07:31:23;102405.16;;;13.62;nan
14343;BME280;7255;53.596;9.960;2023-05-25T07:33:50;102399.78;;;13.75;nan
14343;BME280;7255;53.596;9.960;2023-05-25T07:36:18;102408.53;;;13.91;nan
14343;BME280;7255;53.596;9.960;2023-05-25T07:38:45;102414.38;;;13.94;nan
14343;BME280;7255;53.596;9.960;2023-05-25T07:41:12;102406.88;;;13.83;nan
14343;BME280;7255;53.596;9.960;2023-05-25T07:43:38;102409.37;;;14.11;nan
14343;BME280;7255;53.596;9.960;2023-05-25T07:46:05;102408.56;;;14.11;nan
14343;BME280;7255;53.596;9.960;2023-05-25T07:48:31;102417.69;;;14.03;nan
14343;BME280;7255;53.596;9.960;2023-05-25T07:50:58;102428.50;;;14.03;nan
14343;BME280;7255;53.596;9.960;2023-05-25T07:53:25;102421.44;;;14.15;nan
14343;BME280;7255;53.596;9.960;2023-05-25T07:55:52;102425.19;;;14.21;nan
14343;BME280;7255;53.596;9.960;2023-05-25T07:58:18;102431.03;;;14.31;nan
14343;BME280;7255;53.596;9.960;2023-05-25T08:00:44;102431.84;;;13.98;nan
14343;BME280;7255;53.596;9.960;2023-05-25T08:03:11;102431.41;;;14.08;nan
14343;BME280;7255;53.596;9.960;2023-05-25T08:05:37;102431.84;;;14.05;nan
14343;BME280;7255;53.596;9.960;2023-05-25T08:08:04;102419.16;;;13.92;nan
14343;BME280;7255;53.596;9.960;2023-05-25T08:10:31;102415.19;;;13.88;nan
14343;BME280;7255;53.596;9.960;2023-05-25T08:12:58;102429.75;;;14.07;nan
14343;BME280;7255;53.596;9.960;2023-05-25T08:15:25;102432.25;;;14.15;nan
14343;BME280;7255;53.596;9.960;2023-05-25T08:17:51;102445.59;;;14.43;nan
14343;BME280;7255;53.596;9.960;2023-05-25T08:20:18;102443.28;;;14.20;nan
14343;BME280;7255;53.596;9.960;2023-05-25T08:22:44;102443.44;;;13.85;nan
14343;BME280;7255;53.596;9.960;2023-05-25T08:25:10;102433.47;;;13.79;nan
14343;BME280;7255;53.596;9.960;2023-05-25T08:27:38;102442.22;;;13.95;nan
14343;BME280;7255;53.596;9.960;2023-05-25T08:30:05;102436.19;;;13.93;nan
14343;BME280;7255;53.596;9.960;2023-05-25T08:32:32;102437.69;;;14.29;nan
14343;BME280;7255;53.596;9.960;2023-05-25T08:34:58;102459.28;;;14.49;nan
14343;BME280;7255;53.596;9.960;2023-05-25T08:37:25;102448.06;;;14.52;nan
14343;BME280;7255;53.596;9.960;2023-05-25T08:39:53;102435.59;;;14.31;nan
14343;BME280;7255;53.596;9.960;2023-05-25T08:42:19;102445.59;;;14.43;nan
14343;BME280;7255;53.596;9.960;2023-05-25T08:44:47;102453.06;;;14.75;nan
14343;BME280;7255;53.596;9.960;2023-05-25T08:47:15;102436.41;;;14.85;nan
14343;BME280;7255;53.596;9.960;2023-05-25T08:49:43;102441.34;;;15.08;nan
14343;BME280;7255;53.596;9.960;2023-05-25T08:52:13;102442.09;;;15.28;nan
14343;BME280;7255;53.596;9.960;2023-05-25T08:54:42;102463.28;;;15.45;nan
14343;BME280;7255;53.596;9.960;2023-05-25T08:57:12;102455.38;;;15.36;nan
14343;BME280;7255;53.596;9.960;2023-05-25T08:59:43;102451.34;;;15.00;nan
14343;BME280;7255;53.596;9.960;2023-05-25T09:02:20;102462.62;;;14.84;nan
14343;BME280;7255;53.596;9.960;2023-05-25T09:04:47;102463.41;;;15.11;nan
14343;BME280;7255;53.596;9.960;2023-05-25T09:07:13;102473.41;;;15.04;nan
14343;BME280;7255;53.596;9.960;2023-05-25T09:09:40;102457.53;;;15.21;nan
14343;BME280;7255;53.596;9.960;2023-05-25T09:12:08;102465.78;;;15.46;nan
14343;BME280;7255;53.596;9.960;2023-05-25T09:14:34;102470.28;;;15.59;nan
14343;BME280;7255;53.596;9.960;2023-05-25T09:17:02;102470.81;;;15.36;nan
14343;BME280;7255;53.596;9.960;2023-05-25T09:19:29;102472.03;;;15.40;nan
14343;BME280;7255;53.596;9.960;2023-05-25T09:21:55;102485.69;;;15.58;nan
14343;BME280;7255;53.596;9.960;2023-05-25T09:24:22;102487.78;;;15.56;nan
14343;BME280;7255;53.596;9.960;2023-05-25T09:26:49;102473.16;;;15.64;nan
14343;BME280;7255;53.596;9.960;2023-05-25T09:29:15;102482.62;;;15.93;nan
14343;BME280;7255;53.596;9.960;2023-05-25T09:31:41;102476.84;;;15.90;nan
14343;BME280;7255;53.596;9.960;2023-05-25T09:34:10;102483.09;;;15.84;nan
14343;BME280;7255;53.596;9.960;2023-05-25T09:36:39;102473.16;;;15.77;nan
14343;BME280;7255;53.596;9.960;2023-05-25T09:39:07;102471.94;;;16.05;nan
14343;BME280;7255;53.596;9.960;2023-05-25T09:41:34;102484.22;;;16.08;nan
14343;BME280;7255;53.596;9.960;2023-05-25T09:44:00;102479.78;;;15.82;nan
14343;BME280;7255;53.596;9.960;2023-05-25T09:46:27;102481.00;;;15.86;nan
14343;BME280;7255;53.596;9.960;2023-05-25T09:48:53;102481.72;;;16.06;nan
14343;BME280;7255;53.596;9.960;2023-05-25T09:51:20;102481.53;;;16.33;nan
14343;BME280;7255;53.596;9.960;2023-05-25T09:53:48;102485.91;;;16.02;nan
14343;BME280;7255;53.596;9.960;2023-05-25T09:56:14;102495.22;;;15.81;nan
14343;BME280;7255;53.596;9.960;2023-05-25T09:58:41;102492.66;;;15.93;nan
14343;BME280;7255;53.596;9.960;2023-05-25T10:01:08;102496.31;;;16.12;nan
14343;BME280;7255;53.596;9.960;2023-05-25T10:03:34;102481.06;;;15.72;nan
14343;BME280;7255;53.596;9.960;2023-05-25T10:06:02;102488.41;;;16.04;nan
14343;BME280;7255;53.596;9.960;2023-05-25T10:08:29;102478.25;;;16.24;nan
14343;BME280;7255;53.596;9.960;2023-05-25T10:10:57;102477.84;;;16.21;nan
14343;BME280;7255;53.596;9.960;2023-05-25T10:13:25;102481.78;;;16.00;nan
14343;BME280;7255;53.596;9.960;2023-05-25T10:15:52;102485.84;;;16.15;nan
14343;BME280;7255;53.596;9.960;2023-05-25T10:18:21;102487.13;;;16.06;nan
14343;BME280;7255;53.596;9.960;2023-05-25T10:20:52;102483.63;;;16.31;nan
14343;BME280;7255;53.596;9.960;2023-05-25T10:23:21;102494.72;;;16.54;nan
14343;BME280;7255;53.596;9.960;2023-05-25T10:25:54;102495.38;;;16.25;nan
14343;BME280;7255;53.596;9.960;2023-05-25T10:28:27;102481.97;;;16.30;nan
14343;BME280;7255;53.596;9.960;2023-05-25T10:30:55;102494.28;;;16.58;nan
14343;BME280;7255;53.596;9.960;2023-05-25T10:33:22;102496.81;;;16.52;nan
14343;BME280;7255;53.596;9.960;2023-05-25T10:35:49;102504.25;;;16.64;nan
14343;BME280;7255;53.596;9.960;2023-05-25T10:38:17;102496.56;;;16.79;nan
14343;BME280;7255;53.596;9.960;2023-05-25T10:40:45;102504.09;;;16.84;nan
14343;BME280;7255;53.596;9.960;2023-05-25T10:43:12;102502.81;;;16.86;nan
14343;BME280;7255;53.596;9.960;2023-05-25T10:45:41;102506.00;;;17.02;nan
14343;BME280;7255;53.596;9.960;2023-05-25T10:48:07;102522.00;;;17.28;nan
14343;BME280;7255;53.596;9.960;2023-05-25T10:50:35;102502.38;;;17.26;nan
14343;BME280;7255;53.596;9.960;2023-05-25T10:53:04;102497.38;;;17.60;nan
14343;BME280;7255;53.596;9.960;2023-05-25T10:55:41;102510.19;;;17.72;nan
14343;BME280;7255;53.596;9.960;2023-05-25T10:58:09;102514.91;;;17.27;nan
14343;BME280;7255;53.596;9.960;2023-05-25T11:00:36;102497.84;;;17.57;nan
14343;BME280;7255;53.596;9.960;2023-05-25T11:03:04;102503.81;;;17.47;nan
14343;BME280;7255;53.596;9.960;2023-05-25T11:05:32;102502.22;;;17.40;nan
14343;BME280;7255;53.596;9.960;2023-05-25T11:08:00;102503.47;;;17.74;nan
14343;BME280;7255;53.596;9.960;2023-05-25T11:10:57;102503.28;;;17.57;nan
14343;BME280;7255;53.596;9.960;2023-05-25T11:13:34;102506.84;;;17.39;nan
14343;BME280;7255;53.596;9.960;2023-05-25T11:16:14;102498.75;;;17.51;nan
14343;BME280;7255;53.596;9.960;2023-05-25T11:18:43;102504.91;;;17.58;nan
14343;BME280;7255;53.596;9.960;2023-05-25T11:21:12;102492.72;;;17.30;nan
14343;BME280;7255;53.596;9.960;2023-05-25T11:23:51;102489.97;;;17.49;nan
14343;BME280;7255;53.596;9.960;2023-05-25T11:26:19;102499.16;;;17.85;nan
14343;BME280;7255;53.596;9.960;2023-05-25T11:28:47;102506.34;;;18.09;nan
14343;BME280;7255;53.596;9.960;2023-05-25T11:31:14;102496.09;;;18.23;nan
14343;BME280;7255;53.596;9.960;2023-05-25T11:33:42;102498.59;;;17.64;nan
14343;BME280;7255;53.596;9.960;2023-05-25T11:36:09;102485.34;;;17.86;nan
14343;BME280;7255;53.596;9.960;2023-05-25T11:38:40;102487.13;;;18.35;nan
14343;BME280;7255;53.596;9.960;2023-05-25T11:41:14;102482.16;;;18.79;nan
14343;BME280;7255;53.596;9.960;2023-05-25T11:43:42;102493.19;;;18.72;nan
14343;BME280;7255;53.596;9.960;2023-05-25T11:46:09;102491.41;;;18.78;nan
14343;BME280;7255;53.596;9.960;2023-05-25T11:48:43;102481.81;;;18.52;nan
14343;BME280;7255;53.596;9.960;2023-05-25T11:51:10;102483.19;;;18.19;nan
14343;BME280;7255;53.596;9.960;2023-05-25T11:53:40;102487.94;;;18.35;nan
14343;BME280;7255;53.596;9.960;2023-05-25T11:56:07;102480.59;;;18.24;nan
14343;BME280;7255;53.596;9.960;2023-05-25T11:58:33;102486.88;;;18.36;nan
14343;BME280;7255;53.596;9.960;2023-05-25T12:01:11;102489.50;;;18.43;nan
14343;BME280;7255;53.596;9.960;2023-05-25T12:03:38;102487.75;;;18.72;nan
14343;BME280;7255;53.596;9.960;2023-05-25T12:06:06;102480.31;;;18.91;nan
14343;BME280;7255;53.596;9.960;2023-05-25T12:08:32;102484.19;;;19.07;nan
14343;BME280;7255;53.596;9.960;2023-05-25T12:10:59;102480.91;;;19.05;nan
14343;BME280;7255;53.596;9.960;2023-05-25T12:13:25;102488.16;;;19.40;nan
14343;BME280;7255;53.596;9.960;2023-05-25T12:15:53;102487.34;;;19.28;nan
14343;BME280;7255;53.596;9.960;2023-05-25T12:18:21;102486.06;;;19.18;nan
14343;BME280;7255;53.596;9.960;2023-05-25T12:20:48;102481.44;;;19.59;nan
14343;BME280;7255;53.596;9.960;2023-05-25T12:23:16;102470.97;;;19.39;nan
14343;BME280;7255;53.596;9.960;2023-05-25T12:25:42;102484.41;;;19.17;nan
14343;BME280;7255;53.596;9.960;2023-05-25T12:28:09;102487.25;;;19.22;nan
14343;BME280;7255;53.596;9.960;2023-05-25T12:30:36;102484.41;;;19.17;nan
14343;BME280;7255;53.596;9.960;2023-05-25T12:33:02;102483.22;;;19.13;nan
14343;BME280;7255;53.596;9.960;2023-05-25T12:35:31;102476.88;;;18.96;nan
14343;BME280;7255;53.596;9.960;2023-05-25T12:38:09;102477.94;;;19.47;nan
14343;BME280;7255;53.596;9.960;2023-05-25T12:40:37;102472.50;;;19.47;nan
14343;BME280;7255;53.596;9.960;2023-05-25T12:43:03;102467.09;;;19.23;nan
14343;BME280;7255;53.596;9.960;2023-05-25T12:45:29;102466.81;;;19.37;nan
14343;BME280;7255;53.596;9.960;2023-05-25T12:47:56;102465.84;;;19.02;nan
14343;BME280;7255;53.596;9.960;2023-05-25T12:50:22;102473.50;;;19.17;nan
14343;BME280;7255;53.596;9.960;2023-05-25T12:52:48;102456.25;;;19.81;nan
14343;BME280;7255;53.596;9.960;2023-05-25T12:55:20;102473.47;;;19.98;nan
14343;BME280;7255;53.596;9.960;2023-05-25T12:57:47;102469.16;;;19.45;nan
14343;BME280;7255;53.596;9.960;2023-05-25T13:00:18;102474.53;;;19.28;nan
14343;BME280;7255;53.596;9.960;2023-05-25T13:02:44;102462.38;;;19.88;nan
14343;BME280;7255;53.596;9.960;2023-05-25T13:05:21;102467.34;;;19.91;nan
14343;BME280;7255;53.596;9.960;2023-05-25T13:07:48;102462.56;;;20.32;nan
14343;BME280;7255;53.596;9.960;2023-05-25T13:10:15;102453.97;;;20.57;nan
14343;BME280;7255;53.596;9.960;2023-05-25T13:12:42;102460.59;;;20.45;nan
14343;BME280;7255;53.596;9.960;2023-05-25T13:15:10;102473.34;;;20.39;nan
14343;BME280;7255;53.596;9.960;2023-05-25T13:17:37;102454.16;;;20.17;nan
14343;BME280;7255;53.596;9.960;2023-05-25T13:20:06;102456.94;;;20.22;nan
14343;BME280;7255;53.596;9.960;2023-05-25T13:22:32;102457.94;;;20.50;nan
14343;BME280;7255;53.596;9.960;2023-05-25T13:24:58;102456.44;;;20.25;nan
14343;BME280;7255;53.596;9.960;2023-05-25T13:27:25;102450.31;;;20.18;nan